createdAt,value
2023-01-29T00:00:00.141Z,-10.90
2023-01-29T00:00:10.184Z,-10.90
2023-01-29T00:00:20.104Z,-10.90
2023-01-29T00:00:30.097Z,-10.90
2023-01-29T00:00:40.099Z,-10.91
2023-01-29T00:00:50.111Z,-10.91
2023-01-29T00:01:00.107Z,-10.91
2023-01-29T00:01:10.114Z,-10.93
2023-01-29T00:01:20.106Z,-10.94
2023-01-29T00:01:30.105Z,-10.91
2023-01-29T00:01:40.174Z,-10.93
2023-01-29T00:01:50.115Z,-10.91
2023-01-29T00:02:00.168Z,-10.91
2023-01-29T00:02:10.204Z,-10.93
2023-01-29T00:02:20.194Z,-10.93
2023-01-29T00:02:30.109Z,-10.91
2023-01-29T00:02:40.112Z,-10.91
2023-01-29T00:02:50.117Z,-10.91
2023-01-29T00:03:00.178Z,-10.90
2023-01-29T00:03:10.144Z,-10.91
2023-01-29T00:03:20.209Z,-10.93
2023-01-29T00:03:30.114Z,-10.94
2023-01-29T00:03:40.113Z,-10.94
2023-01-29T00:03:50.121Z,-10.91
2023-01-29T00:04:00.144Z,-10.93
2023-01-29T00:04:10.124Z,-10.93
2023-01-29T00:04:20.118Z,-10.94
2023-01-29T00:04:30.124Z,-10.95
2023-01-29T00:04:40.123Z,-10.95
2023-01-29T00:04:50.119Z,-10.94
2023-01-29T00:05:10.017Z,-10.95
2023-01-29T00:05:26.510Z,-10.95
2023-01-29T00:05:27.826Z,-10.97
2023-01-29T00:05:31.135Z,-10.95
2023-01-29T00:05:40.125Z,-10.97
2023-01-29T00:05:50.125Z,-10.98
2023-01-29T00:06:00.124Z,-10.97
2023-01-29T00:06:10.125Z,-10.97
2023-01-29T00:06:20.142Z,-10.98
2023-01-29T00:06:30.127Z,-10.97
2023-01-29T00:06:40.133Z,-10.98
2023-01-29T00:06:50.128Z,-11.01
2023-01-29T00:07:00.142Z,-10.97
2023-01-29T00:07:10.158Z,-11.01
2023-01-29T00:07:20.144Z,-11.01
2023-01-29T00:07:30.135Z,-11.01
2023-01-29T00:07:40.136Z,-11.01
2023-01-29T00:07:50.136Z,-11.01
2023-01-29T00:08:00.140Z,-11.01
2023-01-29T00:08:10.147Z,-11.01
2023-01-29T00:08:20.136Z,-11.01
2023-01-29T00:08:30.147Z,-11.01
2023-01-29T00:08:40.139Z,-11.02
2023-01-29T00:08:50.144Z,-10.98
2023-01-29T00:09:00.143Z,-11.02
2023-01-29T00:09:10.157Z,-11.02
2023-01-29T00:09:20.146Z,-11.01
2023-01-29T00:09:30.152Z,-11.02
2023-01-29T00:09:40.174Z,-10.98
2023-01-29T00:09:50.150Z,-11.01
2023-01-29T00:10:00.148Z,-11.02
2023-01-29T00:10:10.164Z,-11.02
2023-01-29T00:10:20.165Z,-11.02
2023-01-29T00:10:30.152Z,-11.02
2023-01-29T00:10:40.152Z,-11.01
2023-01-29T00:10:50.154Z,-11.02
2023-01-29T00:11:00.152Z,-11.01
2023-01-29T00:11:10.168Z,-11.02
2023-01-29T00:11:20.157Z,-11.01
2023-01-29T00:11:30.155Z,-11.01
2023-01-29T00:11:40.157Z,-11.02
2023-01-29T00:11:50.164Z,-11.02
2023-01-29T00:12:00.162Z,-11.01
2023-01-29T00:12:10.187Z,-10.98
2023-01-29T00:12:20.164Z,-10.98
2023-01-29T00:12:30.166Z,-10.98
2023-01-29T00:12:40.161Z,-11.01
2023-01-29T00:12:50.165Z,-11.01
2023-01-29T00:13:00.167Z,-11.01
2023-01-29T00:13:10.175Z,-10.98
2023-01-29T00:13:20.164Z,-11.02
2023-01-29T00:13:30.165Z,-11.02
2023-01-29T00:13:40.177Z,-11.01
2023-01-29T00:13:51.061Z,-11.01
2023-01-29T00:14:00.198Z,-11.01
2023-01-29T00:14:10.196Z,-10.98
2023-01-29T00:14:20.189Z,-11.02
2023-01-29T00:14:30.172Z,-11.01
2023-01-29T00:14:40.171Z,-11.02
2023-01-29T00:14:50.174Z,-11.01
2023-01-29T00:15:00.179Z,-11.02
2023-01-29T00:15:10.190Z,-11.02
2023-01-29T00:15:20.182Z,-11.01
2023-01-29T00:15:30.181Z,-11.02
2023-01-29T00:15:40.184Z,-11.01
2023-01-29T00:15:50.182Z,-11.01
2023-01-29T00:16:00.199Z,-10.98
2023-01-29T00:16:10.210Z,-10.98
2023-01-29T00:16:20.184Z,-11.01
2023-01-29T00:16:30.186Z,-11.01
2023-01-29T00:16:40.266Z,-11.02
2023-01-29T00:16:50.226Z,-11.01
2023-01-29T00:17:00.259Z,-11.01
2023-01-29T00:17:10.342Z,-11.01
2023-01-29T00:17:20.244Z,-11.02
2023-01-29T00:17:30.185Z,-11.01
2023-01-29T00:17:40.178Z,-11.02
2023-01-29T00:17:50.191Z,-11.01
2023-01-29T00:18:00.220Z,-11.01
2023-01-29T00:18:10.202Z,-11.04
2023-01-29T00:18:20.193Z,-11.04
2023-01-29T00:18:30.190Z,-11.04
2023-01-29T00:18:40.194Z,-11.04
2023-01-29T00:18:50.196Z,-11.04
2023-01-29T00:19:00.194Z,-11.02
2023-01-29T00:19:10.234Z,-11.02
2023-01-29T00:19:20.203Z,-11.04
2023-01-29T00:19:30.205Z,-11.02
2023-01-29T00:19:40.202Z,-11.01
2023-01-29T00:19:50.197Z,-11.02
2023-01-29T00:20:00.202Z,-11.01
2023-01-29T00:20:10.217Z,-11.01
2023-01-29T00:20:20.283Z,-11.01
2023-01-29T00:20:30.204Z,-11.02
2023-01-29T00:20:40.202Z,-10.98
2023-01-29T00:20:50.205Z,-11.01
2023-01-29T00:21:00.189Z,-11.02
2023-01-29T00:21:10.219Z,-11.01
2023-01-29T00:21:20.209Z,-11.04
2023-01-29T00:21:30.214Z,-11.02
2023-01-29T00:21:40.207Z,-11.02
2023-01-29T00:21:50.215Z,-11.04
2023-01-29T00:22:00.212Z,-11.02
2023-01-29T00:22:10.262Z,-11.02
2023-01-29T00:22:20.214Z,-11.02
2023-01-29T00:22:30.226Z,-11.02
2023-01-29T00:22:40.214Z,-11.04
2023-01-29T00:22:50.216Z,-11.04
2023-01-29T00:23:00.215Z,-11.01
2023-01-29T00:23:10.226Z,-11.04
2023-01-29T00:23:20.221Z,-11.02
2023-01-29T00:23:30.221Z,-11.02
2023-01-29T00:23:40.223Z,-11.02
2023-01-29T00:23:50.222Z,-11.04
2023-01-29T00:24:00.298Z,-11.02
2023-01-29T00:24:10.244Z,-11.04
2023-01-29T00:24:20.316Z,-11.04
2023-01-29T00:24:30.332Z,-11.04
2023-01-29T00:24:40.226Z,-11.02
2023-01-29T00:24:50.231Z,-11.02
2023-01-29T00:25:00.230Z,-10.98
2023-01-29T00:25:10.244Z,-11.02
2023-01-29T00:25:20.241Z,-10.98
2023-01-29T00:25:30.233Z,-10.98
2023-01-29T00:25:40.250Z,-10.97
2023-01-29T00:25:50.259Z,-10.97
2023-01-29T00:26:00.235Z,-10.97
2023-01-29T00:26:10.244Z,-10.97
2023-01-29T00:26:20.248Z,-10.94
2023-01-29T00:26:30.242Z,-10.95
2023-01-29T00:26:40.252Z,-10.94
2023-01-29T00:26:50.247Z,-10.94
2023-01-29T00:27:00.248Z,-10.94
2023-01-29T00:27:10.252Z,-10.97
2023-01-29T00:27:20.259Z,-10.93
2023-01-29T00:27:30.242Z,-10.93
2023-01-29T00:27:40.268Z,-10.91
2023-01-29T00:27:50.246Z,-10.93
2023-01-29T00:28:00.247Z,-10.93
2023-01-29T00:28:10.255Z,-10.91
2023-01-29T00:28:20.258Z,-10.88
2023-01-29T00:28:30.246Z,-10.90
2023-01-29T00:28:40.267Z,-10.90
2023-01-29T00:28:50.252Z,-10.87
2023-01-29T00:29:00.261Z,-10.83
2023-01-29T00:29:10.264Z,-10.83
2023-01-29T00:29:20.260Z,-10.85
2023-01-29T00:29:30.255Z,-10.85
2023-01-29T00:29:40.266Z,-10.83
2023-01-29T00:29:50.261Z,-10.83
2023-01-29T00:30:00.257Z,-10.85
2023-01-29T00:30:10.266Z,-10.82
2023-01-29T00:30:20.476Z,-10.82
2023-01-29T00:30:30.258Z,-10.79
2023-01-29T00:30:40.269Z,-10.76
2023-01-29T00:30:50.262Z,-10.76
2023-01-29T00:31:00.364Z,-10.75
2023-01-29T00:31:10.327Z,-10.75
2023-01-29T00:31:20.395Z,-10.73
2023-01-29T00:31:30.366Z,-10.73
2023-01-29T00:31:40.357Z,-10.72
2023-01-29T00:31:50.433Z,-10.72
2023-01-29T00:32:00.527Z,-10.72
2023-01-29T00:32:10.356Z,-10.71
2023-01-29T00:32:20.400Z,-10.69
2023-01-29T00:32:30.271Z,-10.71
2023-01-29T00:32:40.272Z,-10.68
2023-01-29T00:32:50.269Z,-10.66
2023-01-29T00:33:00.283Z,-10.66
2023-01-29T00:33:10.270Z,-10.63
2023-01-29T00:33:20.269Z,-10.63
2023-01-29T00:33:30.271Z,-10.65
2023-01-29T00:33:40.274Z,-10.62
2023-01-29T00:33:50.348Z,-10.60
2023-01-29T00:34:00.292Z,-10.60
2023-01-29T00:34:10.283Z,-10.58
2023-01-29T00:34:20.284Z,-10.58
2023-01-29T00:34:30.287Z,-10.57
2023-01-29T00:34:40.324Z,-10.58
2023-01-29T00:34:50.285Z,-10.57
2023-01-29T00:35:00.283Z,-10.57
2023-01-29T00:35:10.285Z,-10.57
2023-01-29T00:35:20.290Z,-10.55
2023-01-29T00:35:30.294Z,-10.57
2023-01-29T00:35:40.291Z,-10.57
2023-01-29T00:35:50.289Z,-10.55
2023-01-29T00:36:00.288Z,-10.58
2023-01-29T00:36:10.296Z,-10.57
2023-01-29T00:36:20.324Z,-10.58
2023-01-29T00:36:30.298Z,-10.58
2023-01-29T00:36:40.301Z,-10.58
2023-01-29T00:36:50.295Z,-10.62
2023-01-29T00:37:00.295Z,-10.60
2023-01-29T00:37:10.305Z,-10.60
2023-01-29T00:37:20.301Z,-10.58
2023-01-29T00:37:30.310Z,-10.60
2023-01-29T00:37:40.326Z,-10.60
2023-01-29T00:37:50.297Z,-10.62
2023-01-29T00:38:00.304Z,-10.60
2023-01-29T00:38:10.312Z,-10.60
2023-01-29T00:38:20.310Z,-10.60
2023-01-29T00:38:30.304Z,-10.58
2023-01-29T00:38:40.303Z,-10.62
2023-01-29T00:38:50.303Z,-10.63
2023-01-29T00:39:00.303Z,-10.62
2023-01-29T00:39:10.305Z,-10.62
2023-01-29T00:39:20.305Z,-10.62
2023-01-29T00:39:45.990Z,-10.62
2023-01-29T00:39:47.813Z,-10.63
2023-01-29T00:39:51.311Z,-10.62
2023-01-29T00:40:00.325Z,-10.63
2023-01-29T00:40:10.309Z,-10.63
2023-01-29T00:40:20.312Z,-10.62
2023-01-29T00:40:30.317Z,-10.63
2023-01-29T00:40:40.313Z,-10.65
2023-01-29T00:40:50.324Z,-10.63
2023-01-29T00:41:00.324Z,-10.63
2023-01-29T00:41:10.313Z,-10.66
2023-01-29T00:41:20.315Z,-10.65
2023-01-29T00:41:30.319Z,-10.65
2023-01-29T00:41:40.328Z,-10.65
2023-01-29T00:41:50.319Z,-10.63
2023-01-29T00:42:00.331Z,-10.66
2023-01-29T00:42:10.322Z,-10.66
2023-01-29T00:42:20.323Z,-10.65
2023-01-29T00:42:30.331Z,-10.62
2023-01-29T00:42:40.323Z,-10.65
2023-01-29T00:42:50.334Z,-10.63
2023-01-29T00:43:00.325Z,-10.60
2023-01-29T00:43:10.326Z,-10.60
2023-01-29T00:43:20.354Z,-10.54
2023-01-29T00:43:30.329Z,-10.50
2023-01-29T00:43:40.327Z,-10.44
2023-01-29T00:43:50.333Z,-10.36
2023-01-29T00:44:00.329Z,-10.30
2023-01-29T00:44:10.339Z,-10.24
2023-01-29T00:44:20.344Z,-10.22
2023-01-29T00:44:30.330Z,-10.21
2023-01-29T00:44:40.330Z,-10.16
2023-01-29T00:44:50.331Z,-10.13
2023-01-29T00:45:00.338Z,-10.12
2023-01-29T00:45:10.344Z,-10.11
2023-01-29T00:45:20.334Z,-10.08
2023-01-29T00:45:30.335Z,-10.08
2023-01-29T00:45:40.360Z,-10.06
2023-01-29T00:45:50.338Z,-10.03
2023-01-29T00:46:00.345Z,-10.06
2023-01-29T00:46:10.353Z,-10.01
2023-01-29T00:46:20.386Z,-10.01
2023-01-29T00:46:30.349Z,-10.03
2023-01-29T00:46:40.371Z,-10.01
2023-01-29T00:46:50.389Z,-10.03
2023-01-29T00:47:00.342Z,-10.01
2023-01-29T00:47:10.342Z,-10.04
2023-01-29T00:47:20.356Z,-10.03
2023-01-29T00:47:30.355Z,-10.03
2023-01-29T00:47:40.354Z,-10.04
2023-01-29T00:47:50.347Z,-10.04
2023-01-29T00:48:00.348Z,-10.04
2023-01-29T00:48:10.348Z,-10.04
2023-01-29T00:48:20.349Z,-10.08
2023-01-29T00:48:30.356Z,-10.08
2023-01-29T00:48:40.350Z,-10.04
2023-01-29T00:48:50.351Z,-10.01
2023-01-29T00:49:00.948Z,-10.03
2023-01-29T00:49:10.359Z,-10.03
2023-01-29T00:49:20.357Z,-10.00
2023-01-29T00:49:30.399Z,-10.01
2023-01-29T00:49:40.376Z,-10.01
2023-01-29T00:49:50.357Z,-10.00
2023-01-29T00:50:00.372Z,-10.00
2023-01-29T00:50:10.371Z,-10.00
2023-01-29T00:50:20.370Z,-9.98
2023-01-29T00:50:30.379Z,-9.98
2023-01-29T00:50:40.377Z,-9.97
2023-01-29T00:50:50.362Z,-9.95
2023-01-29T00:51:00.378Z,-9.94
2023-01-29T00:51:10.364Z,-9.94
2023-01-29T00:51:20.383Z,-9.95
2023-01-29T00:51:30.367Z,-9.93
2023-01-29T00:51:40.379Z,-9.93
2023-01-29T00:51:50.371Z,-9.93
2023-01-29T00:52:00.386Z,-9.91
2023-01-29T00:52:10.370Z,-9.88
2023-01-29T00:52:20.387Z,-9.88
2023-01-29T00:52:30.374Z,-9.86
2023-01-29T00:52:40.375Z,-9.86
2023-01-29T00:52:50.385Z,-9.83
2023-01-29T00:53:00.378Z,-9.82
2023-01-29T00:53:10.379Z,-9.84
2023-01-29T00:53:20.376Z,-9.82
2023-01-29T00:53:30.386Z,-9.83
2023-01-29T00:53:40.389Z,-9.82
2023-01-29T00:53:50.365Z,-9.82
2023-01-29T00:54:00.380Z,-9.82
2023-01-29T00:54:10.380Z,-9.80
2023-01-29T00:54:20.380Z,-9.82
2023-01-29T00:54:32.418Z,-9.82
2023-01-29T00:54:40.388Z,-9.82
2023-01-29T00:54:50.384Z,-9.82
2023-01-29T00:55:00.421Z,-9.82
2023-01-29T00:55:10.406Z,-9.82
2023-01-29T00:55:20.385Z,-9.80
2023-01-29T00:55:30.397Z,-9.82
2023-01-29T00:55:40.393Z,-9.80
2023-01-29T00:55:50.393Z,-9.83
2023-01-29T00:56:00.407Z,-9.83
2023-01-29T00:56:10.393Z,-9.80
2023-01-29T00:56:20.398Z,-9.82
2023-01-29T00:56:30.404Z,-9.82
2023-01-29T00:56:40.395Z,-9.82
2023-01-29T00:56:50.399Z,-9.79
2023-01-29T00:57:00.404Z,-9.79
2023-01-29T00:57:10.407Z,-9.79
2023-01-29T00:57:20.418Z,-9.77
2023-01-29T00:57:30.430Z,-9.79
2023-01-29T00:57:40.416Z,-9.79
2023-01-29T00:57:50.403Z,-9.79
2023-01-29T00:58:00.422Z,-9.77
2023-01-29T00:58:10.404Z,-9.80
2023-01-29T00:58:20.410Z,-9.79
2023-01-29T00:58:30.415Z,-9.79
2023-01-29T00:58:40.408Z,-9.80
2023-01-29T00:58:50.410Z,-9.79
2023-01-29T00:59:00.408Z,-9.79
2023-01-29T00:59:10.408Z,-9.79
2023-01-29T00:59:20.425Z,-9.79
2023-01-29T00:59:30.410Z,-9.79
2023-01-29T00:59:40.412Z,-9.80
2023-01-29T00:59:50.422Z,-9.79
2023-01-29T01:00:00.422Z,-9.80
2023-01-29T01:00:10.427Z,-9.80
2023-01-29T01:00:20.413Z,-9.82
2023-01-29T01:00:30.564Z,-9.82
2023-01-29T01:00:40.521Z,-9.83
2023-01-29T01:00:50.469Z,-9.82
2023-01-29T01:01:00.485Z,-9.83
2023-01-29T01:01:10.450Z,-9.83
2023-01-29T01:01:20.434Z,-9.83
2023-01-29T01:01:30.419Z,-9.84
2023-01-29T01:01:40.442Z,-9.83
2023-01-29T01:01:50.468Z,-9.82
2023-01-29T01:02:00.514Z,-9.83
2023-01-29T01:02:10.489Z,-9.83
2023-01-29T01:02:20.503Z,-9.82
2023-01-29T01:02:30.426Z,-9.80
2023-01-29T01:02:40.429Z,-9.80
2023-01-29T01:02:50.445Z,-9.79
2023-01-29T01:03:00.428Z,-9.79
2023-01-29T01:03:10.430Z,-9.79
2023-01-29T01:03:20.440Z,-9.80
2023-01-29T01:03:30.433Z,-9.79
2023-01-29T01:03:40.446Z,-9.82
2023-01-29T01:03:50.436Z,-9.82
2023-01-29T01:04:00.436Z,-9.80
2023-01-29T01:04:10.435Z,-9.82
2023-01-29T01:04:20.451Z,-9.82
2023-01-29T01:04:30.445Z,-9.83
2023-01-29T01:04:40.444Z,-9.84
2023-01-29T01:04:50.444Z,-9.83
2023-01-29T01:05:00.440Z,-9.84
2023-01-29T01:05:10.449Z,-9.84
2023-01-29T01:05:20.450Z,-9.84
2023-01-29T01:05:30.459Z,-9.86
2023-01-29T01:05:40.453Z,-9.84
2023-01-29T01:05:50.446Z,-9.84
2023-01-29T01:06:00.447Z,-9.88
2023-01-29T01:06:10.465Z,-9.86
2023-01-29T01:06:20.445Z,-9.90
2023-01-29T01:06:30.461Z,-9.90
2023-01-29T01:06:40.448Z,-9.90
2023-01-29T01:06:50.449Z,-9.90
2023-01-29T01:07:00.451Z,-9.88
2023-01-29T01:07:28.628Z,-9.91
2023-01-29T01:07:38.620Z,-9.91
2023-01-29T01:07:48.622Z,-9.91
2023-01-29T01:07:58.621Z,-9.93
2023-01-29T01:08:08.631Z,-9.94
2023-01-29T01:08:18.631Z,-9.93
2023-01-29T01:08:28.632Z,-9.94
2023-01-29T01:08:38.641Z,-9.91
2023-01-29T01:08:48.623Z,-9.95
2023-01-29T01:08:58.622Z,-9.94
2023-01-29T01:09:08.630Z,-9.97
2023-01-29T01:09:18.629Z,-9.95
2023-01-29T01:09:28.626Z,-9.93
2023-01-29T01:09:38.638Z,-9.94
2023-01-29T01:09:48.625Z,-9.94
2023-01-29T01:09:58.627Z,-9.95
2023-01-29T01:10:08.642Z,-9.91
2023-01-29T01:10:18.805Z,-9.91
2023-01-29T01:10:28.649Z,-9.90
2023-01-29T01:10:38.646Z,-9.91
2023-01-29T01:10:48.635Z,-9.91
2023-01-29T01:10:58.640Z,-9.93
2023-01-29T01:11:08.637Z,-9.90
2023-01-29T01:11:18.646Z,-9.91
2023-01-29T01:11:29.528Z,-9.93
2023-01-29T01:11:38.646Z,-9.91
2023-01-29T01:11:48.654Z,-9.91
2023-01-29T01:11:58.645Z,-9.94
2023-01-29T01:12:08.651Z,-9.93
2023-01-29T01:12:18.658Z,-9.93
2023-01-29T01:12:28.644Z,-9.94
2023-01-29T01:12:38.637Z,-9.94
2023-01-29T01:12:48.652Z,-9.94
2023-01-29T01:12:59.524Z,-9.94
2023-01-29T01:13:08.642Z,-9.95
2023-01-29T01:13:18.685Z,-9.94
2023-01-29T01:13:28.645Z,-9.95
2023-01-29T01:13:38.649Z,-9.94
2023-01-29T01:13:48.657Z,-9.95
2023-01-29T01:13:58.647Z,-9.94
2023-01-29T01:14:08.661Z,-9.95
2023-01-29T01:14:18.667Z,-9.95
2023-01-29T01:14:28.648Z,-9.94
2023-01-29T01:14:39.514Z,-9.94
2023-01-29T01:14:48.660Z,-9.97
2023-01-29T01:14:58.652Z,-9.95
2023-01-29T01:15:08.655Z,-9.95
2023-01-29T01:15:18.683Z,-9.95
2023-01-29T01:15:28.661Z,-9.97
2023-01-29T01:15:38.677Z,-9.95
2023-01-29T01:15:48.672Z,-9.95
2023-01-29T01:15:58.724Z,-9.97
2023-01-29T01:16:08.667Z,-9.97
2023-01-29T01:16:18.730Z,-9.98
2023-01-29T01:16:28.767Z,-9.97
2023-01-29T01:16:38.741Z,-9.98
2023-01-29T01:16:48.671Z,-10.00
2023-01-29T01:16:58.661Z,-9.97
2023-01-29T01:17:08.674Z,-9.98
2023-01-29T01:17:18.692Z,-9.98
2023-01-29T01:17:28.675Z,-9.97
2023-01-29T01:17:38.663Z,-9.98
2023-01-29T01:17:48.686Z,-10.01
2023-01-29T01:17:58.671Z,-9.98
2023-01-29T01:18:08.697Z,-10.00
2023-01-29T01:18:18.667Z,-10.00
2023-01-29T01:18:28.671Z,-10.00
2023-01-29T01:18:38.673Z,-10.01
2023-01-29T01:18:48.669Z,-10.01
2023-01-29T01:18:58.688Z,-10.03
2023-01-29T01:19:08.685Z,-10.03
2023-01-29T01:19:18.681Z,-10.04
2023-01-29T01:19:28.679Z,-10.03
2023-01-29T01:19:38.687Z,-10.03
2023-01-29T01:19:49.569Z,-10.04
2023-01-29T01:19:58.688Z,-10.04
2023-01-29T01:20:08.724Z,-10.04
2023-01-29T01:20:18.997Z,-10.08
2023-01-29T01:20:28.690Z,-10.06
2023-01-29T01:20:38.683Z,-10.08
2023-01-29T01:20:48.684Z,-10.06
2023-01-29T01:20:58.711Z,-10.09
2023-01-29T01:21:08.714Z,-10.11
2023-01-29T01:21:18.675Z,-10.09
2023-01-29T01:21:28.698Z,-10.11
2023-01-29T01:21:38.690Z,-10.09
2023-01-29T01:21:48.694Z,-10.11
2023-01-29T01:21:58.692Z,-10.09
2023-01-29T01:22:08.723Z,-10.12
2023-01-29T01:22:18.692Z,-10.11
2023-01-29T01:22:28.700Z,-10.12
2023-01-29T01:22:39.563Z,-10.13
2023-01-29T01:22:48.693Z,-10.13
2023-01-29T01:22:58.700Z,-10.13
2023-01-29T01:23:08.701Z,-10.16
2023-01-29T01:23:18.697Z,-10.18
2023-01-29T01:23:28.721Z,-10.15
2023-01-29T01:23:38.704Z,-10.16
2023-01-29T01:23:48.705Z,-10.18
2023-01-29T01:23:58.725Z,-10.18
2023-01-29T01:24:08.761Z,-10.19
2023-01-29T01:24:18.813Z,-10.19
2023-01-29T01:24:28.764Z,-10.21
2023-01-29T01:24:38.730Z,-10.19
2023-01-29T01:24:48.744Z,-10.21
2023-01-29T01:24:58.715Z,-10.21
2023-01-29T01:25:08.714Z,-10.21
2023-01-29T01:25:18.752Z,-10.21
2023-01-29T01:25:28.742Z,-10.22
2023-01-29T01:25:38.714Z,-10.21
2023-01-29T01:25:48.720Z,-10.22
2023-01-29T01:25:58.732Z,-10.22
2023-01-29T01:26:08.710Z,-10.24
2023-01-29T01:26:18.741Z,-10.24
2023-01-29T01:26:28.730Z,-10.24
2023-01-29T01:26:38.716Z,-10.24
2023-01-29T01:26:48.725Z,-10.22
2023-01-29T01:26:58.728Z,-10.26
2023-01-29T01:27:08.727Z,-10.26
2023-01-29T01:27:18.756Z,-10.26
2023-01-29T01:27:28.757Z,-10.27
2023-01-29T01:27:38.722Z,-10.26
2023-01-29T01:27:48.726Z,-10.26
2023-01-29T01:28:00.577Z,-10.29
2023-01-29T01:28:08.754Z,-10.29
2023-01-29T01:28:18.744Z,-10.29
2023-01-29T01:28:28.748Z,-10.29
2023-01-29T01:28:38.755Z,-10.29
2023-01-29T01:28:48.733Z,-10.32
2023-01-29T01:28:58.737Z,-10.33
2023-01-29T01:29:08.767Z,-10.33
2023-01-29T01:29:19.584Z,-10.32
2023-01-29T01:29:28.734Z,-10.36
2023-01-29T01:29:38.735Z,-10.34
2023-01-29T01:29:48.763Z,-10.36
2023-01-29T01:29:58.738Z,-10.36
2023-01-29T01:30:08.744Z,-10.34
2023-01-29T01:30:25.730Z,-10.37
2023-01-29T01:30:28.737Z,-10.36
2023-01-29T01:30:38.796Z,-10.37
2023-01-29T01:30:48.755Z,-10.37
2023-01-29T01:30:58.795Z,-10.37
2023-01-29T01:31:08.898Z,-10.39
2023-01-29T01:31:18.887Z,-10.37
2023-01-29T01:31:28.854Z,-10.40
2023-01-29T01:31:38.800Z,-10.40
2023-01-29T01:31:48.773Z,-10.40
2023-01-29T01:31:58.790Z,-10.40
2023-01-29T01:32:08.748Z,-10.42
2023-01-29T01:32:18.762Z,-10.40
2023-01-29T01:32:28.759Z,-10.40
2023-01-29T01:32:38.750Z,-10.42
2023-01-29T01:32:48.753Z,-10.44
2023-01-29T01:32:58.747Z,-10.42
2023-01-29T01:33:08.760Z,-10.42
2023-01-29T01:33:18.767Z,-10.45
2023-01-29T01:33:28.755Z,-10.44
2023-01-29T01:33:38.756Z,-10.45
2023-01-29T01:33:48.757Z,-10.44
2023-01-29T01:33:58.765Z,-10.45
2023-01-29T01:34:08.758Z,-10.42
2023-01-29T01:34:18.765Z,-10.44
2023-01-29T01:34:28.773Z,-10.44
2023-01-29T01:34:38.767Z,-10.42
2023-01-29T01:34:48.764Z,-10.42
2023-01-29T01:34:58.763Z,-10.42
2023-01-29T01:35:08.775Z,-10.40
2023-01-29T01:35:18.788Z,-10.40
2023-01-29T01:35:28.765Z,-10.40
2023-01-29T01:35:38.783Z,-10.42
2023-01-29T01:35:49.581Z,-10.40
2023-01-29T01:35:58.766Z,-10.40
2023-01-29T01:36:08.766Z,-10.40
2023-01-29T01:36:18.796Z,-10.40
2023-01-29T01:36:28.777Z,-10.40
2023-01-29T01:36:38.771Z,-10.39
2023-01-29T01:36:48.779Z,-10.39
2023-01-29T01:36:58.787Z,-10.40
2023-01-29T01:37:08.791Z,-10.39
2023-01-29T01:37:18.788Z,-10.40
2023-01-29T01:37:28.786Z,-10.37
2023-01-29T01:37:38.779Z,-10.36
2023-01-29T01:37:48.799Z,-10.37
2023-01-29T01:37:58.777Z,-10.37
2023-01-29T01:38:08.793Z,-10.36
2023-01-29T01:38:18.787Z,-10.36
2023-01-29T01:38:28.780Z,-10.34
2023-01-29T01:38:38.782Z,-10.34
2023-01-29T01:38:48.793Z,-10.33
2023-01-29T01:38:58.782Z,-10.34
2023-01-29T01:39:08.788Z,-10.33
2023-01-29T01:39:18.785Z,-10.34
2023-01-29T01:39:28.795Z,-10.33
2023-01-29T01:39:38.787Z,-10.32
2023-01-29T01:39:48.788Z,-10.33
2023-01-29T01:39:58.791Z,-10.32
2023-01-29T01:40:08.793Z,-10.32
2023-01-29T01:40:19.146Z,-10.32
2023-01-29T01:40:28.794Z,-10.33
2023-01-29T01:40:38.798Z,-10.30
2023-01-29T01:40:48.794Z,-10.29
2023-01-29T01:40:58.796Z,-10.29
2023-01-29T01:41:08.805Z,-10.30
2023-01-29T01:41:18.797Z,-10.26
2023-01-29T01:41:28.801Z,-10.29
2023-01-29T01:41:38.803Z,-10.26
2023-01-29T01:41:48.799Z,-10.27
2023-01-29T01:41:58.798Z,-10.27
2023-01-29T01:42:08.813Z,-10.27
2023-01-29T01:42:18.804Z,-10.27
2023-01-29T01:42:28.813Z,-10.29
2023-01-29T01:42:38.807Z,-10.29
2023-01-29T01:42:48.816Z,-10.27
2023-01-29T01:42:58.813Z,-10.29
2023-01-29T01:43:08.820Z,-10.26
2023-01-29T01:43:18.807Z,-10.26
2023-01-29T01:43:28.806Z,-10.29
2023-01-29T01:43:38.812Z,-10.27
2023-01-29T01:43:48.836Z,-10.27
2023-01-29T01:43:58.806Z,-10.27
2023-01-29T01:44:08.806Z,-10.27
2023-01-29T01:44:18.809Z,-10.27
2023-01-29T01:44:28.813Z,-10.26
2023-01-29T01:44:38.811Z,-10.24
2023-01-29T01:44:48.832Z,-10.21
2023-01-29T01:44:58.839Z,-10.22
2023-01-29T01:45:08.813Z,-10.22
2023-01-29T01:45:18.814Z,-10.22
2023-01-29T01:45:28.831Z,-10.21
2023-01-29T01:45:38.850Z,-10.24
2023-01-29T01:45:48.851Z,-10.22
2023-01-29T01:45:58.836Z,-10.22
2023-01-29T01:46:08.893Z,-10.22
2023-01-29T01:46:18.821Z,-10.21
2023-01-29T01:46:28.830Z,-10.22
2023-01-29T01:46:38.834Z,-10.22
2023-01-29T01:46:48.831Z,-10.24
2023-01-29T01:46:58.825Z,-10.22
2023-01-29T01:47:08.827Z,-10.21
2023-01-29T01:47:18.825Z,-10.22
2023-01-29T01:47:28.825Z,-10.22
2023-01-29T01:47:38.836Z,-10.22
2023-01-29T01:47:48.846Z,-10.24
2023-01-29T01:47:58.833Z,-10.22
2023-01-29T01:48:08.843Z,-10.22
2023-01-29T01:48:18.835Z,-10.22
2023-01-29T01:48:28.834Z,-10.22
2023-01-29T01:48:38.834Z,-10.22
2023-01-29T01:48:48.839Z,-10.22
2023-01-29T01:48:58.834Z,-10.21
2023-01-29T01:49:08.835Z,-10.22
2023-01-29T01:49:18.836Z,-10.24
2023-01-29T01:49:28.838Z,-10.22
2023-01-29T01:49:38.841Z,-10.24
2023-01-29T01:49:48.851Z,-10.24
2023-01-29T01:49:58.841Z,-10.26
2023-01-29T01:50:08.840Z,-10.26
2023-01-29T01:50:19.017Z,-10.24
2023-01-29T01:50:28.844Z,-10.26
2023-01-29T01:50:38.848Z,-10.27
2023-01-29T01:50:48.861Z,-10.26
2023-01-29T01:50:58.843Z,-10.27
2023-01-29T01:51:08.849Z,-10.26
2023-01-29T01:51:18.850Z,-10.27
2023-01-29T01:51:28.851Z,-10.27
2023-01-29T01:51:38.870Z,-10.29
2023-01-29T01:51:48.882Z,-10.27
2023-01-29T01:51:58.853Z,-10.29
2023-01-29T01:52:08.857Z,-10.29
2023-01-29T01:52:18.863Z,-10.29
2023-01-29T01:52:28.859Z,-10.29
2023-01-29T01:52:38.862Z,-10.29
2023-01-29T01:52:48.864Z,-10.29
2023-01-29T01:52:58.860Z,-10.27
2023-01-29T01:53:08.879Z,-10.29
2023-01-29T01:53:18.868Z,-10.29
2023-01-29T01:53:28.860Z,-10.30
2023-01-29T01:53:38.871Z,-10.30
2023-01-29T01:53:48.864Z,-10.29
2023-01-29T01:53:58.869Z,-10.29
2023-01-29T01:54:08.876Z,-10.29
2023-01-29T01:54:18.868Z,-10.27
2023-01-29T01:54:28.873Z,-10.27
2023-01-29T01:54:38.869Z,-10.27
2023-01-29T01:54:48.886Z,-10.27
2023-01-29T01:54:58.873Z,-10.27
2023-01-29T01:55:08.875Z,-10.27
2023-01-29T01:55:18.874Z,-10.26
2023-01-29T01:55:28.875Z,-10.29
2023-01-29T01:55:38.881Z,-10.26
2023-01-29T01:55:48.904Z,-10.27
2023-01-29T01:55:58.879Z,-10.26
2023-01-29T01:56:08.885Z,-10.27
2023-01-29T01:56:18.889Z,-10.27
2023-01-29T01:56:28.880Z,-10.27
2023-01-29T01:56:38.882Z,-10.27
2023-01-29T01:56:48.881Z,-10.27
2023-01-29T01:56:58.887Z,-10.27
2023-01-29T01:57:08.886Z,-10.26
2023-01-29T01:57:18.886Z,-10.29
2023-01-29T01:57:28.887Z,-10.27
2023-01-29T01:57:38.916Z,-10.27
2023-01-29T01:57:48.916Z,-10.26
2023-01-29T01:57:58.894Z,-10.27
2023-01-29T01:58:08.890Z,-10.27
2023-01-29T01:58:18.889Z,-10.26
2023-01-29T01:58:28.899Z,-10.27
2023-01-29T01:58:38.889Z,-10.26
2023-01-29T01:58:48.894Z,-10.24
2023-01-29T01:58:58.910Z,-10.24
2023-01-29T01:59:08.893Z,-10.26
2023-01-29T01:59:18.900Z,-10.26
2023-01-29T01:59:28.894Z,-10.26
2023-01-29T01:59:38.896Z,-10.24
2023-01-29T01:59:48.922Z,-10.27
2023-01-29T01:59:58.913Z,-10.27
2023-01-29T02:00:08.897Z,-10.29
2023-01-29T02:00:18.900Z,-10.27
2023-01-29T02:00:28.911Z,-10.29
2023-01-29T02:00:38.991Z,-10.30
2023-01-29T02:00:48.921Z,-10.30
2023-01-29T02:00:58.980Z,-10.30
2023-01-29T02:01:08.969Z,-10.30
2023-01-29T02:01:18.973Z,-10.30
2023-01-29T02:01:29.000Z,-10.30
2023-01-29T02:01:38.912Z,-10.30
2023-01-29T02:01:48.917Z,-10.29
2023-01-29T02:01:58.997Z,-10.29
2023-01-29T02:02:08.977Z,-10.26
2023-01-29T02:02:19.016Z,-10.26
2023-01-29T02:02:28.946Z,-10.24
2023-01-29T02:02:38.930Z,-10.24
2023-01-29T02:02:48.926Z,-10.21
2023-01-29T02:02:58.920Z,-10.22
2023-01-29T02:03:08.923Z,-10.22
2023-01-29T02:03:18.922Z,-10.19
2023-01-29T02:03:28.921Z,-10.19
2023-01-29T02:03:38.940Z,-10.19
2023-01-29T02:03:48.934Z,-10.16
2023-01-29T02:03:58.938Z,-10.16
2023-01-29T02:04:08.938Z,-10.15
2023-01-29T02:04:18.940Z,-10.12
2023-01-29T02:04:28.928Z,-10.13
2023-01-29T02:04:38.933Z,-10.11
2023-01-29T02:04:48.939Z,-10.11
2023-01-29T02:04:58.932Z,-10.09
2023-01-29T02:05:08.934Z,-10.09
2023-01-29T02:05:18.934Z,-10.08
2023-01-29T02:05:28.948Z,-10.09
2023-01-29T02:05:38.935Z,-10.08
2023-01-29T02:05:48.939Z,-10.08